sensor_id;sensor_type;location;lat;lon;timestamp;P1;durP1;ratioP1;P2;durP2;ratioP2
63807;SDS011;49961;43.970;22.868;2023-06-14T00:00:03;8.33;;;2.70;;
63807;SDS011;49961;43.970;22.868;2023-06-14T00:01:04;9.87;;;2.60;;
63807;SDS011;49961;43.970;22.868;2023-06-14T00:02:06;9.33;;;2.70;;
63807;SDS011;49961;43.970;22.868;2023-06-14T00:03:08;10.53;;;2.47;;
63807;SDS011;49961;43.970;22.868;2023-06-14T00:04:10;10.40;;;2.50;;
63807;SDS011;49961;43.970;22.868;2023-06-14T00:05:10;11.77;;;2.13;;
63807;SDS011;49961;43.970;22.868;2023-06-14T00:06:12;7.63;;;2.47;;
63807;SDS011;49961;43.970;22.868;2023-06-14T00:07:12;13.57;;;2.50;;
63807;SDS011;49961;43.970;22.868;2023-06-14T00:08:13;6.20;;;2.40;;
63807;SDS011;49961;43.970;22.868;2023-06-14T00:09:14;10.20;;;2.80;;
63807;SDS011;49961;43.970;22.868;2023-06-14T00:10:17;10.27;;;2.43;;
63807;SDS011;49961;43.970;22.868;2023-06-14T00:11:18;9.53;;;2.07;;
63807;SDS011;49961;43.970;22.868;2023-06-14T00:12:18;10.33;;;2.70;;
63807;SDS011;49961;43.970;22.868;2023-06-14T00:13:18;8.60;;;2.70;;
63807;SDS011;49961;43.970;22.868;2023-06-14T00:14:19;7.63;;;2.30;;
63807;SDS011;49961;43.970;22.868;2023-06-14T00:15:19;9.87;;;3.20;;
63807;SDS011;49961;43.970;22.868;2023-06-14T00:16:21;9.77;;;2.40;;
63807;SDS011;49961;43.970;22.868;2023-06-14T00:17:21;9.57;;;2.67;;
63807;SDS011;49961;43.970;22.868;2023-06-14T00:18:22;8.50;;;2.80;;
63807;SDS011;49961;43.970;22.868;2023-06-14T00:19:29;13.57;;;2.50;;
63807;SDS011;49961;43.970;22.868;2023-06-14T00:20:32;10.93;;;2.43;;
63807;SDS011;49961;43.970;22.868;2023-06-14T00:21:33;10.90;;;2.50;;
63807;SDS011;49961;43.970;22.868;2023-06-14T00:22:34;12.60;;;2.63;;
63807;SDS011;49961;43.970;22.868;2023-06-14T00:23:36;7.37;;;2.30;;
63807;SDS011;49961;43.970;22.868;2023-06-14T00:24:37;21.63;;;2.67;;
63807;SDS011;49961;43.970;22.868;2023-06-14T00:25:37;8.00;;;2.57;;
63807;SDS011;49961;43.970;22.868;2023-06-14T00:26:38;9.40;;;2.90;;
63807;SDS011;49961;43.970;22.868;2023-06-14T00:27:38;9.20;;;2.40;;
63807;SDS011;49961;43.970;22.868;2023-06-14T00:28:38;9.60;;;2.53;;
63807;SDS011;49961;43.970;22.868;2023-06-14T00:29:39;13.70;;;2.50;;
63807;SDS011;49961;43.970;22.868;2023-06-14T00:30:39;14.90;;;3.00;;
63807;SDS011;49961;43.970;22.868;2023-06-14T00:31:40;11.17;;;2.77;;
63807;SDS011;49961;43.970;22.868;2023-06-14T00:32:40;11.53;;;2.67;;
63807;SDS011;49961;43.970;22.868;2023-06-14T00:33:42;10.63;;;2.40;;
63807;SDS011;49961;43.970;22.868;2023-06-14T00:34:43;12.17;;;2.80;;
63807;SDS011;49961;43.970;22.868;2023-06-14T00:35:43;5.33;;;2.33;;
63807;SDS011;49961;43.970;22.868;2023-06-14T00:36:44;9.50;;;2.70;;
63807;SDS011;49961;43.970;22.868;2023-06-14T00:37:44;12.73;;;2.87;;
63807;SDS011;49961;43.970;22.868;2023-06-14T00:38:45;7.80;;;2.70;;
63807;SDS011;49961;43.970;22.868;2023-06-14T00:39:45;7.83;;;2.47;;
63807;SDS011;49961;43.970;22.868;2023-06-14T00:40:46;7.23;;;2.50;;
63807;SDS011;49961;43.970;22.868;2023-06-14T00:41:46;10.97;;;2.50;;
63807;SDS011;49961;43.970;22.868;2023-06-14T00:42:47;5.77;;;2.60;;
63807;SDS011;49961;43.970;22.868;2023-06-14T00:43:47;12.60;;;2.60;;
63807;SDS011;49961;43.970;22.868;2023-06-14T00:44:48;8.40;;;2.27;;
63807;SDS011;49961;43.970;22.868;2023-06-14T00:45:48;9.20;;;2.57;;
63807;SDS011;49961;43.970;22.868;2023-06-14T00:46:49;9.17;;;2.77;;
63807;SDS011;49961;43.970;22.868;2023-06-14T00:47:50;16.77;;;3.20;;
63807;SDS011;49961;43.970;22.868;2023-06-14T00:48:55;12.53;;;3.30;;
63807;SDS011;49961;43.970;22.868;2023-06-14T00:49:57;14.47;;;3.40;;
63807;SDS011;49961;43.970;22.868;2023-06-14T00:50:58;14.10;;;3.27;;
63807;SDS011;49961;43.970;22.868;2023-06-14T00:52:03;12.73;;;3.10;;
63807;SDS011;49961;43.970;22.868;2023-06-14T00:53:04;6.53;;;3.20;;
63807;SDS011;49961;43.970;22.868;2023-06-14T00:54:05;9.30;;;3.30;;
63807;SDS011;49961;43.970;22.868;2023-06-14T00:55:06;9.13;;;3.13;;
63807;SDS011;49961;43.970;22.868;2023-06-14T00:56:07;11.93;;;3.17;;
63807;SDS011;49961;43.970;22.868;2023-06-14T00:57:07;9.47;;;3.47;;
63807;SDS011;49961;43.970;22.868;2023-06-14T00:58:09;11.67;;;3.30;;
63807;SDS011;49961;43.970;22.868;2023-06-14T00:59:10;15.83;;;3.80;;
63807;SDS011;49961;43.970;22.868;2023-06-14T01:00:11;13.53;;;3.60;;
63807;SDS011;49961;43.970;22.868;2023-06-14T01:01:12;13.93;;;3.63;;
63807;SDS011;49961;43.970;22.868;2023-06-14T01:02:14;10.07;;;3.40;;
63807;SDS011;49961;43.970;22.868;2023-06-14T01:03:20;12.53;;;3.43;;
63807;SDS011;49961;43.970;22.868;2023-06-14T01:04:22;6.70;;;2.77;;
63807;SDS011;49961;43.970;22.868;2023-06-14T01:05:23;11.80;;;3.07;;
63807;SDS011;49961;43.970;22.868;2023-06-14T01:06:31;6.97;;;3.03;;
63807;SDS011;49961;43.970;22.868;2023-06-14T01:08:51;16.77;;;3.70;;
63807;SDS011;49961;43.970;22.868;2023-06-14T01:11:16;7.73;;;3.20;;
63807;SDS011;49961;43.970;22.868;2023-06-14T01:12:35;10.70;;;3.70;;
63807;SDS011;49961;43.970;22.868;2023-06-14T01:13:44;9.37;;;3.10;;
63807;SDS011;49961;43.970;22.868;2023-06-14T01:14:46;9.50;;;3.40;;
63807;SDS011;49961;43.970;22.868;2023-06-14T01:15:48;11.97;;;3.63;;
63807;SDS011;49961;43.970;22.868;2023-06-14T01:16:50;14.33;;;4.83;;
63807;SDS011;49961;43.970;22.868;2023-06-14T01:17:53;17.10;;;3.93;;
63807;SDS011;49961;43.970;22.868;2023-06-14T01:18:53;12.57;;;3.57;;
63807;SDS011;49961;43.970;22.868;2023-06-14T01:19:56;19.13;;;4.10;;
63807;SDS011;49961;43.970;22.868;2023-06-14T01:20:57;16.10;;;4.20;;
63807;SDS011;49961;43.970;22.868;2023-06-14T01:21:59;17.17;;;3.90;;
63807;SDS011;49961;43.970;22.868;2023-06-14T01:23:01;23.03;;;4.10;;
63807;SDS011;49961;43.970;22.868;2023-06-14T01:24:02;13.43;;;3.73;;
63807;SDS011;49961;43.970;22.868;2023-06-14T01:25:03;7.40;;;3.23;;
63807;SDS011;49961;43.970;22.868;2023-06-14T01:26:04;10.80;;;3.70;;
63807;SDS011;49961;43.970;22.868;2023-06-14T01:27:05;18.27;;;3.57;;
63807;SDS011;49961;43.970;22.868;2023-06-14T01:28:07;11.17;;;3.43;;
63807;SDS011;49961;43.970;22.868;2023-06-14T01:29:11;13.03;;;3.70;;
63807;SDS011;49961;43.970;22.868;2023-06-14T01:30:17;10.87;;;3.47;;
63807;SDS011;49961;43.970;22.868;2023-06-14T01:31:21;13.40;;;3.87;;
63807;SDS011;49961;43.970;22.868;2023-06-14T01:32:23;12.10;;;3.70;;
63807;SDS011;49961;43.970;22.868;2023-06-14T01:33:26;12.17;;;3.90;;
63807;SDS011;49961;43.970;22.868;2023-06-14T01:34:28;9.43;;;3.53;;
63807;SDS011;49961;43.970;22.868;2023-06-14T01:35:28;14.70;;;4.27;;
63807;SDS011;49961;43.970;22.868;2023-06-14T01:36:29;12.13;;;3.40;;
63807;SDS011;49961;43.970;22.868;2023-06-14T01:37:29;8.80;;;3.47;;
63807;SDS011;49961;43.970;22.868;2023-06-14T01:38:31;9.43;;;3.40;;
63807;SDS011;49961;43.970;22.868;2023-06-14T01:39:32;11.33;;;3.50;;
63807;SDS011;49961;43.970;22.868;2023-06-14T01:40:34;12.03;;;3.87;;
63807;SDS011;49961;43.970;22.868;2023-06-14T01:41:35;13.13;;;4.00;;
63807;SDS011;49961;43.970;22.868;2023-06-14T01:42:36;8.90;;;3.60;;
63807;SDS011;49961;43.970;22.868;2023-06-14T01:43:38;16.50;;;4.07;;
63807;SDS011;49961;43.970;22.868;2023-06-14T01:44:41;6.90;;;3.30;;
63807;SDS011;49961;43.970;22.868;2023-06-14T01:45:44;11.63;;;3.90;;
63807;SDS011;49961;43.970;22.868;2023-06-14T01:46:47;7.83;;;3.70;;
63807;SDS011;49961;43.970;22.868;2023-06-14T01:47:48;8.07;;;3.60;;
63807;SDS011;49961;43.970;22.868;2023-06-14T01:48:50;9.90;;;3.60;;
63807;SDS011;49961;43.970;22.868;2023-06-14T01:49:50;6.33;;;3.57;;
63807;SDS011;49961;43.970;22.868;2023-06-14T01:50:51;12.80;;;4.60;;
63807;SDS011;49961;43.970;22.868;2023-06-14T01:51:52;10.50;;;3.63;;
63807;SDS011;49961;43.970;22.868;2023-06-14T01:52:52;11.53;;;3.80;;
63807;SDS011;49961;43.970;22.868;2023-06-14T01:53:53;5.03;;;3.80;;
63807;SDS011;49961;43.970;22.868;2023-06-14T01:54:53;9.93;;;3.83;;
63807;SDS011;49961;43.970;22.868;2023-06-14T01:55:54;8.17;;;4.00;;
63807;SDS011;49961;43.970;22.868;2023-06-14T01:56:54;6.10;;;4.00;;
63807;SDS011;49961;43.970;22.868;2023-06-14T01:57:55;13.00;;;4.70;;
63807;SDS011;49961;43.970;22.868;2023-06-14T01:58:55;7.97;;;3.50;;
63807;SDS011;49961;43.970;22.868;2023-06-14T01:59:56;14.53;;;3.63;;
63807;SDS011;49961;43.970;22.868;2023-06-14T02:00:56;9.47;;;3.70;;
63807;SDS011;49961;43.970;22.868;2023-06-14T02:01:58;10.87;;;3.93;;
63807;SDS011;49961;43.970;22.868;2023-06-14T02:02:58;14.43;;;3.70;;
63807;SDS011;49961;43.970;22.868;2023-06-14T02:03:58;10.20;;;4.10;;
63807;SDS011;49961;43.970;22.868;2023-06-14T02:04:59;10.23;;;3.90;;
63807;SDS011;49961;43.970;22.868;2023-06-14T02:05:59;12.33;;;3.90;;
63807;SDS011;49961;43.970;22.868;2023-06-14T02:07:00;13.70;;;4.10;;
63807;SDS011;49961;43.970;22.868;2023-06-14T02:08:01;7.73;;;3.70;;
63807;SDS011;49961;43.970;22.868;2023-06-14T02:09:02;8.23;;;3.57;;
63807;SDS011;49961;43.970;22.868;2023-06-14T02:10:03;8.90;;;4.00;;
63807;SDS011;49961;43.970;22.868;2023-06-14T02:11:05;10.07;;;3.70;;
63807;SDS011;49961;43.970;22.868;2023-06-14T02:12:05;9.57;;;3.70;;
63807;SDS011;49961;43.970;22.868;2023-06-14T02:13:06;7.17;;;3.53;;
63807;SDS011;49961;43.970;22.868;2023-06-14T02:14:06;16.50;;;3.80;;
63807;SDS011;49961;43.970;22.868;2023-06-14T02:15:11;11.50;;;3.97;;
63807;SDS011;49961;43.970;22.868;2023-06-14T02:16:19;11.77;;;3.60;;
63807;SDS011;49961;43.970;22.868;2023-06-14T02:17:19;7.40;;;3.70;;
63807;SDS011;49961;43.970;22.868;2023-06-14T02:18:20;7.07;;;3.47;;
63807;SDS011;49961;43.970;22.868;2023-06-14T02:19:21;13.87;;;3.80;;
63807;SDS011;49961;43.970;22.868;2023-06-14T02:20:22;7.73;;;3.70;;
63807;SDS011;49961;43.970;22.868;2023-06-14T02:21:22;7.57;;;3.70;;
63807;SDS011;49961;43.970;22.868;2023-06-14T02:22:22;7.83;;;3.47;;
63807;SDS011;49961;43.970;22.868;2023-06-14T02:23:23;7.40;;;3.77;;
63807;SDS011;49961;43.970;22.868;2023-06-14T02:24:23;14.90;;;4.37;;
63807;SDS011;49961;43.970;22.868;2023-06-14T02:25:24;8.50;;;3.80;;
63807;SDS011;49961;43.970;22.868;2023-06-14T02:26:24;12.77;;;3.97;;
63807;SDS011;49961;43.970;22.868;2023-06-14T02:27:28;14.07;;;4.37;;
63807;SDS011;49961;43.970;22.868;2023-06-14T02:28:29;9.03;;;3.90;;
63807;SDS011;49961;43.970;22.868;2023-06-14T02:29:29;16.23;;;4.40;;
63807;SDS011;49961;43.970;22.868;2023-06-14T02:30:30;11.07;;;3.93;;
63807;SDS011;49961;43.970;22.868;2023-06-14T02:31:31;8.00;;;3.60;;
63807;SDS011;49961;43.970;22.868;2023-06-14T02:32:32;8.73;;;3.50;;
63807;SDS011;49961;43.970;22.868;2023-06-14T02:33:35;11.60;;;3.83;;
63807;SDS011;49961;43.970;22.868;2023-06-14T02:34:35;8.33;;;4.60;;
63807;SDS011;49961;43.970;22.868;2023-06-14T02:35:36;10.47;;;3.83;;
63807;SDS011;49961;43.970;22.868;2023-06-14T02:36:37;10.27;;;3.83;;
63807;SDS011;49961;43.970;22.868;2023-06-14T02:37:41;14.73;;;4.07;;
63807;SDS011;49961;43.970;22.868;2023-06-14T02:38:42;7.47;;;3.87;;
63807;SDS011;49961;43.970;22.868;2023-06-14T02:39:43;11.80;;;3.60;;
63807;SDS011;49961;43.970;22.868;2023-06-14T02:40:43;11.73;;;4.13;;
63807;SDS011;49961;43.970;22.868;2023-06-14T02:41:44;9.83;;;4.17;;
63807;SDS011;49961;43.970;22.868;2023-06-14T02:42:44;8.53;;;3.90;;
63807;SDS011;49961;43.970;22.868;2023-06-14T02:43:45;9.80;;;3.90;;
63807;SDS011;49961;43.970;22.868;2023-06-14T02:44:45;10.90;;;3.80;;
63807;SDS011;49961;43.970;22.868;2023-06-14T02:45:50;13.70;;;4.20;;
63807;SDS011;49961;43.970;22.868;2023-06-14T02:46:52;8.33;;;3.60;;
63807;SDS011;49961;43.970;22.868;2023-06-14T02:47:53;11.30;;;3.70;;
63807;SDS011;49961;43.970;22.868;2023-06-14T02:48:55;6.70;;;3.53;;
63807;SDS011;49961;43.970;22.868;2023-06-14T02:49:56;6.37;;;3.90;;
63807;SDS011;49961;43.970;22.868;2023-06-14T02:50:56;9.20;;;3.80;;
63807;SDS011;49961;43.970;22.868;2023-06-14T02:51:56;12.07;;;3.77;;
63807;SDS011;49961;43.970;22.868;2023-06-14T02:52:57;9.23;;;4.00;;
63807;SDS011;49961;43.970;22.868;2023-06-14T02:53:58;11.20;;;4.17;;
63807;SDS011;49961;43.970;22.868;2023-06-14T02:54:58;8.60;;;4.10;;
63807;SDS011;49961;43.970;22.868;2023-06-14T02:55:59;9.57;;;4.73;;
63807;SDS011;49961;43.970;22.868;2023-06-14T02:57:01;15.17;;;4.83;;
63807;SDS011;49961;43.970;22.868;2023-06-14T02:58:02;11.83;;;4.40;;
63807;SDS011;49961;43.970;22.868;2023-06-14T02:59:02;13.40;;;4.70;;
63807;SDS011;49961;43.970;22.868;2023-06-14T03:00:04;14.50;;;4.57;;
63807;SDS011;49961;43.970;22.868;2023-06-14T03:01:05;11.13;;;4.37;;
63807;SDS011;49961;43.970;22.868;2023-06-14T03:02:07;9.37;;;5.00;;
63807;SDS011;49961;43.970;22.868;2023-06-14T03:03:08;13.17;;;4.20;;
63807;SDS011;49961;43.970;22.868;2023-06-14T03:04:13;10.03;;;4.23;;
63807;SDS011;49961;43.970;22.868;2023-06-14T03:05:14;12.83;;;4.20;;
63807;SDS011;49961;43.970;22.868;2023-06-14T03:06:14;12.57;;;4.53;;
63807;SDS011;49961;43.970;22.868;2023-06-14T03:07:16;6.83;;;4.77;;
63807;SDS011;49961;43.970;22.868;2023-06-14T03:08:19;12.77;;;4.63;;
63807;SDS011;49961;43.970;22.868;2023-06-14T03:09:21;12.40;;;4.93;;
63807;SDS011;49961;43.970;22.868;2023-06-14T03:10:22;9.37;;;4.50;;
63807;SDS011;49961;43.970;22.868;2023-06-14T03:11:22;11.10;;;4.80;;
63807;SDS011;49961;43.970;22.868;2023-06-14T03:12:23;14.97;;;5.07;;
63807;SDS011;49961;43.970;22.868;2023-06-14T03:13:23;11.10;;;4.90;;
63807;SDS011;49961;43.970;22.868;2023-06-14T03:14:24;19.17;;;5.40;;
63807;SDS011;49961;43.970;22.868;2023-06-14T03:15:24;10.43;;;4.53;;
63807;SDS011;49961;43.970;22.868;2023-06-14T03:16:25;11.30;;;5.27;;
63807;SDS011;49961;43.970;22.868;2023-06-14T03:17:25;13.07;;;4.63;;
63807;SDS011;49961;43.970;22.868;2023-06-14T03:18:30;9.30;;;4.50;;
63807;SDS011;49961;43.970;22.868;2023-06-14T03:19:31;10.40;;;4.50;;
63807;SDS011;49961;43.970;22.868;2023-06-14T03:20:31;14.07;;;5.10;;
63807;SDS011;49961;43.970;22.868;2023-06-14T03:21:34;14.13;;;4.93;;
63807;SDS011;49961;43.970;22.868;2023-06-14T03:22:34;16.77;;;5.50;;
63807;SDS011;49961;43.970;22.868;2023-06-14T03:23:35;11.20;;;4.50;;
63807;SDS011;49961;43.970;22.868;2023-06-14T03:24:35;11.90;;;4.53;;
63807;SDS011;49961;43.970;22.868;2023-06-14T03:25:36;8.83;;;4.03;;
63807;SDS011;49961;43.970;22.868;2023-06-14T03:26:38;11.13;;;4.50;;
63807;SDS011;49961;43.970;22.868;2023-06-14T03:27:38;9.43;;;4.93;;
63807;SDS011;49961;43.970;22.868;2023-06-14T03:28:39;10.90;;;4.70;;
63807;SDS011;49961;43.970;22.868;2023-06-14T03:29:40;16.20;;;5.53;;
63807;SDS011;49961;43.970;22.868;2023-06-14T03:30:40;12.47;;;4.97;;
63807;SDS011;49961;43.970;22.868;2023-06-14T03:31:55;9.33;;;5.07;;
63807;SDS011;49961;43.970;22.868;2023-06-14T03:32:58;11.10;;;5.30;;
63807;SDS011;49961;43.970;22.868;2023-06-14T03:34:01;12.67;;;5.90;;
63807;SDS011;49961;43.970;22.868;2023-06-14T03:35:02;12.30;;;5.63;;
63807;SDS011;49961;43.970;22.868;2023-06-14T03:36:02;7.40;;;5.47;;
63807;SDS011;49961;43.970;22.868;2023-06-14T03:37:03;9.83;;;5.63;;
63807;SDS011;49961;43.970;22.868;2023-06-14T03:38:04;12.87;;;5.60;;
63807;SDS011;49961;43.970;22.868;2023-06-14T03:39:04;10.13;;;5.60;;
63807;SDS011;49961;43.970;22.868;2023-06-14T03:40:05;9.03;;;5.87;;
63807;SDS011;49961;43.970;22.868;2023-06-14T03:41:06;13.80;;;5.93;;
63807;SDS011;49961;43.970;22.868;2023-06-14T03:42:06;9.93;;;5.77;;
63807;SDS011;49961;43.970;22.868;2023-06-14T03:43:07;11.60;;;5.47;;
63807;SDS011;49961;43.970;22.868;2023-06-14T03:44:07;10.20;;;5.83;;
63807;SDS011;49961;43.970;22.868;2023-06-14T03:45:08;11.23;;;6.27;;
63807;SDS011;49961;43.970;22.868;2023-06-14T03:46:08;11.40;;;5.90;;
63807;SDS011;49961;43.970;22.868;2023-06-14T03:47:09;13.37;;;6.10;;
63807;SDS011;49961;43.970;22.868;2023-06-14T03:48:09;10.93;;;6.70;;
63807;SDS011;49961;43.970;22.868;2023-06-14T03:49:09;12.83;;;6.00;;
63807;SDS011;49961;43.970;22.868;2023-06-14T03:50:10;11.97;;;6.20;;
63807;SDS011;49961;43.970;22.868;2023-06-14T03:51:11;11.37;;;5.97;;
63807;SDS011;49961;43.970;22.868;2023-06-14T03:52:12;10.80;;;5.97;;
63807;SDS011;49961;43.970;22.868;2023-06-14T03:53:14;9.00;;;6.17;;
63807;SDS011;49961;43.970;22.868;2023-06-14T03:54:14;8.77;;;6.10;;
63807;SDS011;49961;43.970;22.868;2023-06-14T03:55:15;9.93;;;5.87;;
63807;SDS011;49961;43.970;22.868;2023-06-14T03:56:16;8.80;;;6.43;;
63807;SDS011;49961;43.970;22.868;2023-06-14T03:57:16;16.10;;;6.37;;
63807;SDS011;49961;43.970;22.868;2023-06-14T03:58:17;9.93;;;6.23;;
63807;SDS011;49961;43.970;22.868;2023-06-14T03:59:17;12.77;;;6.53;;
63807;SDS011;49961;43.970;22.868;2023-06-14T04:00:18;9.33;;;3.27;;
63807;SDS011;49961;43.970;22.868;2023-06-14T04:01:18;12.43;;;6.10;;
63807;SDS011;49961;43.970;22.868;2023-06-14T04:02:18;6.93;;;5.93;;
63807;SDS011;49961;43.970;22.868;2023-06-14T04:03:19;11.83;;;6.40;;
63807;SDS011;49961;43.970;22.868;2023-06-14T04:04:24;13.07;;;5.73;;
63807;SDS011;49961;43.970;22.868;2023-06-14T04:05:28;10.50;;;6.07;;
63807;SDS011;49961;43.970;22.868;2023-06-14T04:06:29;13.30;;;6.63;;
63807;SDS011;49961;43.970;22.868;2023-06-14T04:07:32;8.50;;;6.17;;
63807;SDS011;49961;43.970;22.868;2023-06-14T04:08:39;11.57;;;6.30;;
63807;SDS011;49961;43.970;22.868;2023-06-14T04:09:41;14.87;;;6.40;;
63807;SDS011;49961;43.970;22.868;2023-06-14T04:10:42;9.77;;;6.30;;
63807;SDS011;49961;43.970;22.868;2023-06-14T04:11:42;11.70;;;6.37;;
63807;SDS011;49961;43.970;22.868;2023-06-14T04:12:42;12.20;;;6.33;;
63807;SDS011;49961;43.970;22.868;2023-06-14T04:13:43;11.40;;;7.10;;
63807;SDS011;49961;43.970;22.868;2023-06-14T04:14:44;16.53;;;6.77;;
63807;SDS011;49961;43.970;22.868;2023-06-14T04:15:44;9.57;;;6.27;;
63807;SDS011;49961;43.970;22.868;2023-06-14T04:16:46;12.40;;;6.50;;
63807;SDS011;49961;43.970;22.868;2023-06-14T04:17:47;13.87;;;6.43;;
63807;SDS011;49961;43.970;22.868;2023-06-14T04:18:48;16.50;;;6.57;;
63807;SDS011;49961;43.970;22.868;2023-06-14T04:19:51;11.13;;;6.23;;
63807;SDS011;49961;43.970;22.868;2023-06-14T04:20:52;9.83;;;6.63;;
63807;SDS011;49961;43.970;22.868;2023-06-14T04:21:53;9.47;;;6.60;;
63807;SDS011;49961;43.970;22.868;2023-06-14T04:22:56;12.03;;;6.10;;
63807;SDS011;49961;43.970;22.868;2023-06-14T04:23:57;9.77;;;5.80;;
63807;SDS011;49961;43.970;22.868;2023-06-14T04:24:57;7.73;;;6.20;;
63807;SDS011;49961;43.970;22.868;2023-06-14T04:25:59;14.10;;;5.97;;
63807;SDS011;49961;43.970;22.868;2023-06-14T04:27:02;12.37;;;6.20;;
63807;SDS011;49961;43.970;22.868;2023-06-14T04:28:03;10.73;;;6.10;;
63807;SDS011;49961;43.970;22.868;2023-06-14T04:29:03;10.77;;;6.57;;
63807;SDS011;49961;43.970;22.868;2023-06-14T04:30:04;9.27;;;6.47;;
63807;SDS011;49961;43.970;22.868;2023-06-14T04:31:08;9.70;;;5.93;;
63807;SDS011;49961;43.970;22.868;2023-06-14T04:32:08;10.00;;;6.60;;
63807;SDS011;49961;43.970;22.868;2023-06-14T04:33:10;9.53;;;6.53;;
63807;SDS011;49961;43.970;22.868;2023-06-14T04:34:11;10.97;;;6.30;;
63807;SDS011;49961;43.970;22.868;2023-06-14T04:35:16;12.00;;;6.90;;
63807;SDS011;49961;43.970;22.868;2023-06-14T04:36:17;11.70;;;6.10;;
63807;SDS011;49961;43.970;22.868;2023-06-14T04:37:17;11.73;;;6.47;;
63807;SDS011;49961;43.970;22.868;2023-06-14T04:38:19;13.17;;;7.40;;
63807;SDS011;49961;43.970;22.868;2023-06-14T04:39:24;17.83;;;7.13;;
63807;SDS011;49961;43.970;22.868;2023-06-14T04:40:26;11.73;;;6.70;;
63807;SDS011;49961;43.970;22.868;2023-06-14T04:41:26;8.67;;;6.70;;
63807;SDS011;49961;43.970;22.868;2023-06-14T04:42:30;8.63;;;6.10;;
63807;SDS011;49961;43.970;22.868;2023-06-14T04:43:31;12.50;;;6.90;;
63807;SDS011;49961;43.970;22.868;2023-06-14T04:44:38;14.63;;;6.77;;
63807;SDS011;49961;43.970;22.868;2023-06-14T04:45:39;13.90;;;7.10;;
63807;SDS011;49961;43.970;22.868;2023-06-14T04:46:40;10.10;;;6.97;;
63807;SDS011;49961;43.970;22.868;2023-06-14T04:47:47;8.30;;;6.83;;
63807;SDS011;49961;43.970;22.868;2023-06-14T04:48:47;12.27;;;7.23;;
63807;SDS011;49961;43.970;22.868;2023-06-14T04:49:50;12.37;;;7.23;;
63807;SDS011;49961;43.970;22.868;2023-06-14T04:50:53;8.73;;;6.87;;
63807;SDS011;49961;43.970;22.868;2023-06-14T04:51:56;8.63;;;6.23;;
63807;SDS011;49961;43.970;22.868;2023-06-14T04:53:01;10.73;;;6.20;;
63807;SDS011;49961;43.970;22.868;2023-06-14T04:54:02;9.23;;;6.33;;
63807;SDS011;49961;43.970;22.868;2023-06-14T04:55:04;9.07;;;6.10;;
63807;SDS011;49961;43.970;22.868;2023-06-14T04:56:05;8.83;;;6.07;;
63807;SDS011;49961;43.970;22.868;2023-06-14T04:57:05;13.23;;;8.73;;
63807;SDS011;49961;43.970;22.868;2023-06-14T04:58:06;8.40;;;5.80;;
63807;SDS011;49961;43.970;22.868;2023-06-14T04:59:06;8.37;;;5.00;;
63807;SDS011;49961;43.970;22.868;2023-06-14T05:01:26;9.37;;;5.20;;
63807;SDS011;49961;43.970;22.868;2023-06-14T05:02:26;9.00;;;5.70;;
63807;SDS011;49961;43.970;22.868;2023-06-14T05:03:27;9.73;;;5.27;;
63807;SDS011;49961;43.970;22.868;2023-06-14T05:04:27;7.67;;;4.80;;
63807;SDS011;49961;43.970;22.868;2023-06-14T05:05:28;5.77;;;5.00;;
63807;SDS011;49961;43.970;22.868;2023-06-14T05:06:28;6.10;;;4.60;;
63807;SDS011;49961;43.970;22.868;2023-06-14T05:07:30;9.47;;;4.90;;
63807;SDS011;49961;43.970;22.868;2023-06-14T05:08:30;6.90;;;5.07;;
63807;SDS011;49961;43.970;22.868;2023-06-14T05:09:31;10.10;;;5.43;;
63807;SDS011;49961;43.970;22.868;2023-06-14T05:10:31;6.40;;;4.63;;
63807;SDS011;49961;43.970;22.868;2023-06-14T05:11:34;10.87;;;5.57;;
63807;SDS011;49961;43.970;22.868;2023-06-14T05:12:35;9.97;;;5.27;;
63807;SDS011;49961;43.970;22.868;2023-06-14T05:13:35;11.17;;;5.20;;
63807;SDS011;49961;43.970;22.868;2023-06-14T05:14:36;10.30;;;4.87;;
63807;SDS011;49961;43.970;22.868;2023-06-14T05:15:37;9.30;;;4.73;;
63807;SDS011;49961;43.970;22.868;2023-06-14T05:16:37;6.77;;;4.83;;
63807;SDS011;49961;43.970;22.868;2023-06-14T05:17:39;9.70;;;4.90;;
63807;SDS011;49961;43.970;22.868;2023-06-14T05:18:40;5.50;;;4.73;;
63807;SDS011;49961;43.970;22.868;2023-06-14T05:19:41;8.50;;;5.00;;
63807;SDS011;49961;43.970;22.868;2023-06-14T05:20:41;12.13;;;4.83;;
63807;SDS011;49961;43.970;22.868;2023-06-14T05:21:42;6.00;;;4.93;;
63807;SDS011;49961;43.970;22.868;2023-06-14T05:22:42;5.43;;;4.67;;
63807;SDS011;49961;43.970;22.868;2023-06-14T05:23:43;8.80;;;4.67;;
63807;SDS011;49961;43.970;22.868;2023-06-14T05:24:44;8.67;;;4.80;;
63807;SDS011;49961;43.970;22.868;2023-06-14T05:25:46;7.67;;;4.70;;
63807;SDS011;49961;43.970;22.868;2023-06-14T05:26:46;6.80;;;4.50;;
63807;SDS011;49961;43.970;22.868;2023-06-14T05:27:49;6.60;;;4.47;;
63807;SDS011;49961;43.970;22.868;2023-06-14T05:28:49;8.93;;;4.80;;
63807;SDS011;49961;43.970;22.868;2023-06-14T05:29:50;10.13;;;4.50;;
63807;SDS011;49961;43.970;22.868;2023-06-14T05:30:51;8.07;;;4.33;;
63807;SDS011;49961;43.970;22.868;2023-06-14T05:31:51;5.73;;;4.30;;
63807;SDS011;49961;43.970;22.868;2023-06-14T05:32:52;4.97;;;4.17;;
63807;SDS011;49961;43.970;22.868;2023-06-14T05:33:53;6.00;;;4.27;;
63807;SDS011;49961;43.970;22.868;2023-06-14T05:34:54;6.57;;;4.10;;
63807;SDS011;49961;43.970;22.868;2023-06-14T05:35:54;9.73;;;4.43;;
63807;SDS011;49961;43.970;22.868;2023-06-14T05:36:55;4.80;;;3.63;;
63807;SDS011;49961;43.970;22.868;2023-06-14T05:37:56;6.53;;;4.00;;
63807;SDS011;49961;43.970;22.868;2023-06-14T05:38:56;4.33;;;3.63;;
63807;SDS011;49961;43.970;22.868;2023-06-14T05:39:59;7.13;;;3.87;;
63807;SDS011;49961;43.970;22.868;2023-06-14T05:41:00;4.00;;;3.60;;
63807;SDS011;49961;43.970;22.868;2023-06-14T05:42:00;5.77;;;4.07;;
63807;SDS011;49961;43.970;22.868;2023-06-14T05:43:00;7.43;;;3.90;;
63807;SDS011;49961;43.970;22.868;2023-06-14T05:44:01;6.47;;;3.60;;
63807;SDS011;49961;43.970;22.868;2023-06-14T05:45:01;4.70;;;3.43;;
63807;SDS011;49961;43.970;22.868;2023-06-14T05:46:02;4.63;;;3.93;;
63807;SDS011;49961;43.970;22.868;2023-06-14T05:47:03;4.87;;;3.57;;
63807;SDS011;49961;43.970;22.868;2023-06-14T05:48:03;7.83;;;3.83;;
63807;SDS011;49961;43.970;22.868;2023-06-14T05:49:04;8.57;;;6.03;;
63807;SDS011;49961;43.970;22.868;2023-06-14T05:50:05;7.53;;;5.27;;
63807;SDS011;49961;43.970;22.868;2023-06-14T05:51:06;6.30;;;5.03;;
63807;SDS011;49961;43.970;22.868;2023-06-14T05:52:09;4.93;;;4.00;;
63807;SDS011;49961;43.970;22.868;2023-06-14T05:53:10;11.07;;;6.60;;
63807;SDS011;49961;43.970;22.868;2023-06-14T05:54:10;11.37;;;6.80;;
63807;SDS011;49961;43.970;22.868;2023-06-14T05:55:11;6.23;;;4.60;;
63807;SDS011;49961;43.970;22.868;2023-06-14T05:56:14;4.80;;;3.67;;
63807;SDS011;49961;43.970;22.868;2023-06-14T05:57:17;8.53;;;3.93;;
63807;SDS011;49961;43.970;22.868;2023-06-14T05:58:18;5.03;;;3.63;;
63807;SDS011;49961;43.970;22.868;2023-06-14T05:59:18;6.37;;;3.50;;
63807;SDS011;49961;43.970;22.868;2023-06-14T06:00:19;5.50;;;3.90;;
63807;SDS011;49961;43.970;22.868;2023-06-14T06:01:20;5.40;;;4.23;;
63807;SDS011;49961;43.970;22.868;2023-06-14T06:02:20;4.77;;;4.10;;
63807;SDS011;49961;43.970;22.868;2023-06-14T06:03:20;9.57;;;4.73;;
63807;SDS011;49961;43.970;22.868;2023-06-14T06:04:21;5.93;;;3.43;;
63807;SDS011;49961;43.970;22.868;2023-06-14T06:05:21;4.77;;;3.47;;